sensor_id;sensor_type;location;lat;lon;timestamp;P1;durP1;ratioP1;P2;durP2;ratioP2
62010;SDS011;47967;51.756;10.174;2022-08-27T00:01:12;31.80;;;14.93;;
62010;SDS011;47967;51.756;10.174;2022-08-27T00:05:17;36.90;;;15.30;;
62010;SDS011;47967;51.756;10.174;2022-08-27T00:09:22;40.70;;;15.73;;
62010;SDS011;47967;51.756;10.174;2022-08-27T00:13:27;46.40;;;16.80;;
62010;SDS011;47967;51.756;10.174;2022-08-27T00:17:30;47.47;;;17.52;;
62010;SDS011;47967;51.756;10.174;2022-08-27T00:21:33;42.80;;;16.92;;
62010;SDS011;47967;51.756;10.174;2022-08-27T00:25:37;40.30;;;18.98;;
62010;SDS011;47967;51.756;10.174;2022-08-27T00:29:40;38.17;;;16.58;;
62010;SDS011;47967;51.756;10.174;2022-08-27T00:33:43;43.70;;;19.65;;
62010;SDS011;47967;51.756;10.174;2022-08-27T00:37:46;53.13;;;22.00;;
62010;SDS011;47967;51.756;10.174;2022-08-27T00:41:50;55.75;;;21.38;;
62010;SDS011;47967;51.756;10.174;2022-08-27T00:45:53;53.40;;;21.58;;
62010;SDS011;47967;51.756;10.174;2022-08-27T00:50:00;49.17;;;22.13;;
62010;SDS011;47967;51.756;10.174;2022-08-27T00:54:06;51.53;;;22.50;;
62010;SDS011;47967;51.756;10.174;2022-08-27T00:58:13;49.58;;;22.88;;
62010;SDS011;47967;51.756;10.174;2022-08-27T01:02:20;60.40;;;23.42;;
62010;SDS011;47967;51.756;10.174;2022-08-27T01:06:27;61.47;;;24.25;;
62010;SDS011;47967;51.756;10.174;2022-08-27T01:10:32;62.13;;;24.30;;
62010;SDS011;47967;51.756;10.174;2022-08-27T01:14:37;59.55;;;23.65;;
62010;SDS011;47967;51.756;10.174;2022-08-27T01:18:40;60.25;;;23.65;;
62010;SDS011;47967;51.756;10.174;2022-08-27T01:22:48;59.75;;;24.20;;
62010;SDS011;47967;51.756;10.174;2022-08-27T01:27:11;57.35;;;24.02;;
62010;SDS011;47967;51.756;10.174;2022-08-27T01:31:17;59.30;;;24.65;;
62010;SDS011;47967;51.756;10.174;2022-08-27T01:35:21;47.70;;;21.70;;
62010;SDS011;47967;51.756;10.174;2022-08-27T01:39:24;47.47;;;22.23;;
62010;SDS011;47967;51.756;10.174;2022-08-27T01:43:28;60.50;;;24.33;;
62010;SDS011;47967;51.756;10.174;2022-08-27T01:47:32;68.75;;;24.38;;
62010;SDS011;47967;51.756;10.174;2022-08-27T01:51:36;71.40;;;24.67;;
62010;SDS011;47967;51.756;10.174;2022-08-27T01:55:39;60.67;;;24.80;;
62010;SDS011;47967;51.756;10.174;2022-08-27T01:59:49;59.97;;;22.50;;
62010;SDS011;47967;51.756;10.174;2022-08-27T02:03:51;53.15;;;22.65;;
62010;SDS011;47967;51.756;10.174;2022-08-27T02:07:54;58.42;;;22.98;;
62010;SDS011;47967;51.756;10.174;2022-08-27T02:11:57;51.22;;;20.63;;
62010;SDS011;47967;51.756;10.174;2022-08-27T02:16:02;54.88;;;20.35;;
62010;SDS011;47967;51.756;10.174;2022-08-27T02:20:06;52.00;;;20.58;;
62010;SDS011;47967;51.756;10.174;2022-08-27T02:24:11;50.72;;;19.40;;
62010;SDS011;47967;51.756;10.174;2022-08-27T02:28:13;47.83;;;19.98;;
62010;SDS011;47967;51.756;10.174;2022-08-27T02:32:17;49.83;;;20.15;;
62010;SDS011;47967;51.756;10.174;2022-08-27T02:36:27;47.88;;;18.73;;
62010;SDS011;47967;51.756;10.174;2022-08-27T02:40:30;53.92;;;19.90;;
62010;SDS011;47967;51.756;10.174;2022-08-27T02:44:33;55.92;;;20.90;;
62010;SDS011;47967;51.756;10.174;2022-08-27T02:48:38;45.30;;;19.63;;
62010;SDS011;47967;51.756;10.174;2022-08-27T02:52:41;50.90;;;20.08;;
62010;SDS011;47967;51.756;10.174;2022-08-27T02:56:45;49.17;;;19.08;;
62010;SDS011;47967;51.756;10.174;2022-08-27T03:00:48;36.95;;;15.82;;
62010;SDS011;47967;51.756;10.174;2022-08-27T03:04:52;33.80;;;16.35;;
62010;SDS011;47967;51.756;10.174;2022-08-27T03:08:54;34.17;;;15.85;;
62010;SDS011;47967;51.756;10.174;2022-08-27T03:12:59;40.55;;;16.77;;
62010;SDS011;47967;51.756;10.174;2022-08-27T03:17:02;36.65;;;16.13;;
62010;SDS011;47967;51.756;10.174;2022-08-27T03:21:21;36.78;;;14.68;;
62010;SDS011;47967;51.756;10.174;2022-08-27T03:25:26;35.65;;;15.68;;
62010;SDS011;47967;51.756;10.174;2022-08-27T03:29:29;35.80;;;14.85;;
62010;SDS011;47967;51.756;10.174;2022-08-27T03:33:32;36.15;;;13.85;;
62010;SDS011;47967;51.756;10.174;2022-08-27T03:37:39;38.33;;;14.05;;
62010;SDS011;47967;51.756;10.174;2022-08-27T03:41:42;39.03;;;16.60;;
62010;SDS011;47967;51.756;10.174;2022-08-27T03:45:55;35.03;;;14.02;;
62010;SDS011;47967;51.756;10.174;2022-08-27T03:50:02;37.95;;;14.93;;
62010;SDS011;47967;51.756;10.174;2022-08-27T03:54:07;37.85;;;15.93;;
62010;SDS011;47967;51.756;10.174;2022-08-27T03:58:11;36.67;;;16.35;;
62010;SDS011;47967;51.756;10.174;2022-08-27T04:06:17;33.10;;;13.73;;
62010;SDS011;47967;51.756;10.174;2022-08-27T04:10:21;33.78;;;16.30;;
62010;SDS011;47967;51.756;10.174;2022-08-27T04:14:23;38.67;;;16.08;;
62010;SDS011;47967;51.756;10.174;2022-08-27T04:18:27;37.45;;;16.58;;
62010;SDS011;47967;51.756;10.174;2022-08-27T04:22:32;35.42;;;15.88;;
62010;SDS011;47967;51.756;10.174;2022-08-27T04:26:36;43.88;;;17.13;;
62010;SDS011;47967;51.756;10.174;2022-08-27T04:30:40;35.80;;;16.42;;
62010;SDS011;47967;51.756;10.174;2022-08-27T04:34:45;41.80;;;16.83;;
62010;SDS011;47967;51.756;10.174;2022-08-27T04:38:48;39.92;;;17.02;;
62010;SDS011;47967;51.756;10.174;2022-08-27T04:42:54;35.60;;;15.93;;
62010;SDS011;47967;51.756;10.174;2022-08-27T04:46:58;37.50;;;17.58;;
62010;SDS011;47967;51.756;10.174;2022-08-27T04:51:03;42.08;;;18.20;;
62010;SDS011;47967;51.756;10.174;2022-08-27T04:55:06;37.85;;;16.40;;
62010;SDS011;47967;51.756;10.174;2022-08-27T04:59:11;37.50;;;15.20;;
62010;SDS011;47967;51.756;10.174;2022-08-27T05:03:14;29.83;;;14.30;;
62010;SDS011;47967;51.756;10.174;2022-08-27T05:07:18;29.35;;;14.88;;
62010;SDS011;47967;51.756;10.174;2022-08-27T05:11:21;28.15;;;13.75;;
62010;SDS011;47967;51.756;10.174;2022-08-27T05:15:27;27.90;;;13.10;;
62010;SDS011;47967;51.756;10.174;2022-08-27T05:19:31;30.58;;;12.40;;
62010;SDS011;47967;51.756;10.174;2022-08-27T05:23:34;23.42;;;12.00;;
62010;SDS011;47967;51.756;10.174;2022-08-27T05:27:37;25.77;;;12.68;;
62010;SDS011;47967;51.756;10.174;2022-08-27T05:31:41;23.35;;;12.48;;
62010;SDS011;47967;51.756;10.174;2022-08-27T05:35:46;21.60;;;10.10;;
62010;SDS011;47967;51.756;10.174;2022-08-27T05:39:50;19.95;;;9.90;;
62010;SDS011;47967;51.756;10.174;2022-08-27T05:43:53;21.85;;;10.15;;
62010;SDS011;47967;51.756;10.174;2022-08-27T05:48:08;20.23;;;9.70;;
62010;SDS011;47967;51.756;10.174;2022-08-27T05:52:34;18.25;;;10.07;;
62010;SDS011;47967;51.756;10.174;2022-08-27T05:56:37;22.67;;;10.73;;
62010;SDS011;47967;51.756;10.174;2022-08-27T06:00:40;21.15;;;10.35;;
62010;SDS011;47967;51.756;10.174;2022-08-27T06:05:05;22.40;;;10.43;;
62010;SDS011;47967;51.756;10.174;2022-08-27T06:09:09;21.83;;;10.57;;
62010;SDS011;47967;51.756;10.174;2022-08-27T06:13:12;26.25;;;12.80;;
62010;SDS011;47967;51.756;10.174;2022-08-27T06:17:15;27.98;;;13.48;;
62010;SDS011;47967;51.756;10.174;2022-08-27T06:21:19;27.17;;;13.43;;
62010;SDS011;47967;51.756;10.174;2022-08-27T06:25:25;35.97;;;15.95;;
62010;SDS011;47967;51.756;10.174;2022-08-27T06:29:27;37.67;;;17.52;;
62010;SDS011;47967;51.756;10.174;2022-08-27T06:33:30;37.00;;;15.80;;
62010;SDS011;47967;51.756;10.174;2022-08-27T06:37:35;34.58;;;15.68;;
62010;SDS011;47967;51.756;10.174;2022-08-27T06:41:38;34.10;;;16.55;;
62010;SDS011;47967;51.756;10.174;2022-08-27T06:45:44;36.25;;;14.57;;
62010;SDS011;47967;51.756;10.174;2022-08-27T06:49:47;42.00;;;15.23;;
62010;SDS011;47967;51.756;10.174;2022-08-27T06:53:51;31.48;;;13.98;;
62010;SDS011;47967;51.756;10.174;2022-08-27T06:57:55;38.78;;;15.88;;
62010;SDS011;47967;51.756;10.174;2022-08-27T07:01:58;42.30;;;16.10;;
62010;SDS011;47967;51.756;10.174;2022-08-27T07:06:02;30.27;;;15.57;;
62010;SDS011;47967;51.756;10.174;2022-08-27T07:10:07;36.17;;;14.07;;
62010;SDS011;47967;51.756;10.174;2022-08-27T07:14:11;33.42;;;15.50;;
62010;SDS011;47967;51.756;10.174;2022-08-27T07:18:13;32.42;;;15.55;;
62010;SDS011;47967;51.756;10.174;2022-08-27T07:22:16;31.25;;;15.13;;
62010;SDS011;47967;51.756;10.174;2022-08-27T07:26:21;36.65;;;16.10;;
62010;SDS011;47967;51.756;10.174;2022-08-27T07:30:25;31.77;;;14.70;;
62010;SDS011;47967;51.756;10.174;2022-08-27T07:34:29;37.72;;;16.33;;
62010;SDS011;47967;51.756;10.174;2022-08-27T07:38:31;29.83;;;14.32;;
62010;SDS011;47967;51.756;10.174;2022-08-27T07:42:36;28.20;;;14.98;;
62010;SDS011;47967;51.756;10.174;2022-08-27T07:46:56;26.23;;;13.93;;
62010;SDS011;47967;51.756;10.174;2022-08-27T07:55:05;33.47;;;14.55;;
62010;SDS011;47967;51.756;10.174;2022-08-27T08:03:12;31.85;;;14.20;;
62010;SDS011;47967;51.756;10.174;2022-08-27T08:07:15;30.98;;;14.13;;
62010;SDS011;47967;51.756;10.174;2022-08-27T08:11:17;31.00;;;14.40;;
62010;SDS011;47967;51.756;10.174;2022-08-27T08:15:22;34.65;;;16.33;;
62010;SDS011;47967;51.756;10.174;2022-08-27T08:19:25;26.83;;;14.55;;
62010;SDS011;47967;51.756;10.174;2022-08-27T08:23:27;31.02;;;14.98;;
62010;SDS011;47967;51.756;10.174;2022-08-27T08:27:30;38.17;;;16.40;;
62010;SDS011;47967;51.756;10.174;2022-08-27T08:31:34;32.13;;;16.05;;
62010;SDS011;47967;51.756;10.174;2022-08-27T08:35:37;33.45;;;15.20;;
62010;SDS011;47967;51.756;10.174;2022-08-27T08:39:41;31.15;;;15.73;;
62010;SDS011;47967;51.756;10.174;2022-08-27T08:43:44;33.03;;;16.38;;
62010;SDS011;47967;51.756;10.174;2022-08-27T08:47:54;28.80;;;14.68;;
62010;SDS011;47967;51.756;10.174;2022-08-27T08:52:03;31.52;;;14.45;;
62010;SDS011;47967;51.756;10.174;2022-08-27T08:56:13;27.13;;;14.35;;
62010;SDS011;47967;51.756;10.174;2022-08-27T09:00:21;21.25;;;12.77;;
62010;SDS011;47967;51.756;10.174;2022-08-27T09:04:25;27.67;;;13.50;;
62010;SDS011;47967;51.756;10.174;2022-08-27T09:08:30;24.30;;;12.70;;
62010;SDS011;47967;51.756;10.174;2022-08-27T09:12:41;19.02;;;11.65;;
62010;SDS011;47967;51.756;10.174;2022-08-27T09:16:44;16.70;;;12.25;;
62010;SDS011;47967;51.756;10.174;2022-08-27T09:20:49;20.80;;;11.73;;
62010;SDS011;47967;51.756;10.174;2022-08-27T09:24:59;17.38;;;11.80;;
62010;SDS011;47967;51.756;10.174;2022-08-27T09:29:09;21.08;;;11.90;;
62010;SDS011;47967;51.756;10.174;2022-08-27T09:33:22;17.75;;;10.02;;
62010;SDS011;47967;51.756;10.174;2022-08-27T09:37:28;18.20;;;10.80;;
62010;SDS011;47967;51.756;10.174;2022-08-27T09:41:39;21.55;;;11.48;;
62010;SDS011;47967;51.756;10.174;2022-08-27T09:45:46;15.57;;;9.40;;
62010;SDS011;47967;51.756;10.174;2022-08-27T09:50:03;17.17;;;10.35;;
62010;SDS011;47967;51.756;10.174;2022-08-27T09:54:09;15.43;;;9.52;;
62010;SDS011;47967;51.756;10.174;2022-08-27T09:58:16;14.73;;;9.27;;
62010;SDS011;47967;51.756;10.174;2022-08-27T10:02:22;13.05;;;9.27;;
62010;SDS011;47967;51.756;10.174;2022-08-27T10:06:27;12.93;;;8.88;;
62010;SDS011;47967;51.756;10.174;2022-08-27T10:10:39;15.45;;;9.35;;
62010;SDS011;47967;51.756;10.174;2022-08-27T10:14:50;11.40;;;8.70;;
62010;SDS011;47967;51.756;10.174;2022-08-27T10:18:57;13.38;;;7.53;;
62010;SDS011;47967;51.756;10.174;2022-08-27T10:23:14;13.30;;;7.32;;
62010;SDS011;47967;51.756;10.174;2022-08-27T10:27:28;12.45;;;7.32;;
62010;SDS011;47967;51.756;10.174;2022-08-27T10:31:39;13.38;;;7.10;;
62010;SDS011;47967;51.756;10.174;2022-08-27T10:35:51;11.05;;;6.45;;
62010;SDS011;47967;51.756;10.174;2022-08-27T10:40:04;10.82;;;6.63;;
62010;SDS011;47967;51.756;10.174;2022-08-27T10:44:17;11.20;;;6.18;;
62010;SDS011;47967;51.756;10.174;2022-08-27T10:48:29;11.98;;;6.32;;
62010;SDS011;47967;51.756;10.174;2022-08-27T10:52:37;9.75;;;5.45;;
62010;SDS011;47967;51.756;10.174;2022-08-27T10:56:45;9.68;;;5.88;;
62010;SDS011;47967;51.756;10.174;2022-08-27T11:01:15;7.63;;;5.32;;
62010;SDS011;47967;51.756;10.174;2022-08-27T11:05:24;9.48;;;5.68;;
62010;SDS011;47967;51.756;10.174;2022-08-27T11:09:33;10.55;;;5.55;;
62010;SDS011;47967;51.756;10.174;2022-08-27T11:13:38;9.90;;;6.13;;
62010;SDS011;47967;51.756;10.174;2022-08-27T11:17:49;10.32;;;6.18;;
62010;SDS011;47967;51.756;10.174;2022-08-27T11:21:59;10.93;;;5.90;;
62010;SDS011;47967;51.756;10.174;2022-08-27T11:26:08;8.20;;;5.13;;
62010;SDS011;47967;51.756;10.174;2022-08-27T11:30:15;11.57;;;5.70;;
62010;SDS011;47967;51.756;10.174;2022-08-27T11:34:26;11.50;;;5.45;;
62010;SDS011;47967;51.756;10.174;2022-08-27T11:38:42;11.82;;;5.60;;
62010;SDS011;47967;51.756;10.174;2022-08-27T11:42:52;10.80;;;5.20;;
62010;SDS011;47967;51.756;10.174;2022-08-27T11:47:07;11.30;;;5.00;;
62010;SDS011;47967;51.756;10.174;2022-08-27T11:51:23;9.65;;;5.00;;
62010;SDS011;47967;51.756;10.174;2022-08-27T11:55:33;8.60;;;4.82;;
62010;SDS011;47967;51.756;10.174;2022-08-27T11:59:37;9.27;;;5.10;;
62010;SDS011;47967;51.756;10.174;2022-08-27T12:03:40;11.40;;;4.70;;
62010;SDS011;47967;51.756;10.174;2022-08-27T12:07:48;11.48;;;5.93;;
62010;SDS011;47967;51.756;10.174;2022-08-27T12:11:56;10.35;;;5.30;;
62010;SDS011;47967;51.756;10.174;2022-08-27T12:16:10;8.68;;;5.03;;
62010;SDS011;47967;51.756;10.174;2022-08-27T12:20:23;10.93;;;6.05;;
62010;SDS011;47967;51.756;10.174;2022-08-27T12:24:42;13.00;;;7.15;;
62010;SDS011;47967;51.756;10.174;2022-08-27T12:28:50;12.43;;;5.45;;
62010;SDS011;47967;51.756;10.174;2022-08-27T12:32:56;13.90;;;5.13;;
62010;SDS011;47967;51.756;10.174;2022-08-27T12:37:05;12.15;;;5.47;;
62010;SDS011;47967;51.756;10.174;2022-08-27T12:41:12;12.93;;;5.57;;
62010;SDS011;47967;51.756;10.174;2022-08-27T12:45:26;9.38;;;4.57;;
62010;SDS011;47967;51.756;10.174;2022-08-27T12:49:35;9.93;;;4.80;;
62010;SDS011;47967;51.756;10.174;2022-08-27T12:53:43;11.35;;;4.65;;
62010;SDS011;47967;51.756;10.174;2022-08-27T12:57:51;11.45;;;4.47;;
62010;SDS011;47967;51.756;10.174;2022-08-27T13:02:07;9.77;;;5.25;;
62010;SDS011;47967;51.756;10.174;2022-08-27T13:06:21;8.23;;;4.65;;
62010;SDS011;47967;51.756;10.174;2022-08-27T13:10:28;10.38;;;5.45;;
62010;SDS011;47967;51.756;10.174;2022-08-27T13:14:35;16.58;;;5.57;;
62010;SDS011;47967;51.756;10.174;2022-08-27T13:18:39;10.32;;;5.22;;
62010;SDS011;47967;51.756;10.174;2022-08-27T13:22:42;13.98;;;5.25;;
62010;SDS011;47967;51.756;10.174;2022-08-27T13:30:53;10.32;;;4.82;;
62010;SDS011;47967;51.756;10.174;2022-08-27T13:34:57;12.68;;;4.88;;
62010;SDS011;47967;51.756;10.174;2022-08-27T13:39:02;11.50;;;4.97;;
62010;SDS011;47967;51.756;10.174;2022-08-27T13:43:07;8.77;;;4.57;;
62010;SDS011;47967;51.756;10.174;2022-08-27T13:47:15;10.98;;;4.53;;
62010;SDS011;47967;51.756;10.174;2022-08-27T13:51:22;10.43;;;4.70;;
62010;SDS011;47967;51.756;10.174;2022-08-27T13:55:28;9.93;;;5.10;;
62010;SDS011;47967;51.756;10.174;2022-08-27T13:59:34;11.90;;;4.55;;
62010;SDS011;47967;51.756;10.174;2022-08-27T14:03:47;10.02;;;4.30;;
62010;SDS011;47967;51.756;10.174;2022-08-27T14:07:52;10.18;;;4.45;;
62010;SDS011;47967;51.756;10.174;2022-08-27T14:11:57;10.50;;;4.53;;
62010;SDS011;47967;51.756;10.174;2022-08-27T14:16:10;10.00;;;4.95;;
62010;SDS011;47967;51.756;10.174;2022-08-27T14:20:17;12.93;;;5.38;;
62010;SDS011;47967;51.756;10.174;2022-08-27T14:24:23;9.65;;;5.22;;
62010;SDS011;47967;51.756;10.174;2022-08-27T14:28:25;14.48;;;5.55;;
62010;SDS011;47967;51.756;10.174;2022-08-27T14:32:28;13.07;;;5.47;;
62010;SDS011;47967;51.756;10.174;2022-08-27T14:36:34;12.95;;;5.63;;
62010;SDS011;47967;51.756;10.174;2022-08-27T14:40:39;10.90;;;5.68;;
62010;SDS011;47967;51.756;10.174;2022-08-27T14:44:42;12.32;;;5.68;;
62010;SDS011;47967;51.756;10.174;2022-08-27T14:52:53;11.40;;;5.28;;
62010;SDS011;47967;51.756;10.174;2022-08-27T14:56:56;10.90;;;5.30;;
